Time;durP1;ratioP1;P1;durP2;ratioP2;P2;SDS_P1;SDS_P2;PMS_P1;PMS_P2;Temp;Humidity;BMP_temperature;BMP_pressure;BME280_temperature;BME280_humidity;BME280_pressure;Samples;Min_cycle;Max_cycle;Signal;HPM_P1;HPM_P2
2021/01/01 05:50:00;;;;;;;7.80;4.07;;;;;;;;;;6278028;22;20054;-77
2021/01/01 05:52:26;;;;;;;7.53;3.85;;;;;;;;;;6277376;22;20030;-77
2021/01/01 05:54:59;;;;;;;6.65;4.07;;;;;;;;;;6250467;22;20390;-77
2021/01/01 05:57:33;;;;;;;7.38;4.00;;;;;;;;;;6277557;22;20000;-77
2021/01/01 05:59:59;;;;;;;6.85;4.20;;;;;;;;;;6276314;22;20086;-77
2021/01/01 06:02:28;;;;;;;8.00;5.10;;;;;;;;;;6277034;22;19999;-78
2021/01/01 06:04:56;;;;;;;7.63;4.53;;;;;;;;;;6276971;22;20334;-78
2021/01/01 06:07:23;;;;;;;7.03;4.50;;;;;;;;;;6277609;22;20004;-78
2021/01/01 06:09:52;;;;;;;6.97;4.85;;;;;;;;;;6250520;22;20000;-78
2021/01/01 06:12:25;;;;;;;7.45;4.13;;;;;;;;;;6277238;22;20054;-78
2021/01/01 06:14:59;;;;;;;7.25;4.55;;;;;;;;;;6275063;22;20038;-77
2021/01/01 06:17:33;;;;;;;7.10;4.18;;;;;;;;;;6275261;22;20000;-77
2021/01/01 06:19:58;;;;;;;7.10;4.60;;;;;;;;;;6276041;22;20007;-77
2021/01/01 06:22:25;;;;;;;8.90;5.28;;;;;;;;;;6275986;22;19999;-77
2021/01/01 06:24:51;;;;;;;7.90;4.72;;;;;;;;;;6275008;22;20030;-77
2021/01/01 06:27:18;;;;;;;7.60;4.60;;;;;;;;;;6275387;22;20418;-78
2021/01/01 06:29:45;;;;;;;8.00;4.25;;;;;;;;;;6275700;22;19996;-78
2021/01/01 06:32:12;;;;;;;8.57;4.72;;;;;;;;;;6275763;22;19995;-78
2021/01/01 06:34:38;;;;;;;7.35;4.40;;;;;;;;;;6274959;22;19999;-77
2021/01/01 06:37:04;;;;;;;9.15;5.35;;;;;;;;;;6275589;22;20011;-78
2021/01/01 06:39:40;;;;;;;7.88;4.60;;;;;;;;;;6275712;22;20004;-77
2021/01/01 06:42:07;;;;;;;9.38;4.50;;;;;;;;;;6275487;22;20031;-78
2021/01/01 06:44:35;;;;;;;9.07;5.60;;;;;;;;;;6274753;22;20003;-77
2021/01/01 06:47:01;;;;;;;9.50;4.97;;;;;;;;;;6275512;22;19999;-77
2021/01/01 06:49:31;;;;;;;8.85;5.57;;;;;;;;;;6247756;22;20061;-76
2021/01/01 06:52:10;;;;;;;10.45;6.65;;;;;;;;;;6248769;22;20003;-77
2021/01/01 06:54:55;;;;;;;9.95;6.20;;;;;;;;;;6275000;22;20003;-78
2021/01/01 06:57:23;;;;;;;11.10;6.50;;;;;;;;;;6275158;22;20030;-78
2021/01/01 06:59:49;;;;;;;10.05;5.68;;;;;;;;;;6275699;22;20081;-77
2021/01/01 07:02:22;;;;;;;10.65;6.65;;;;;;;;;;6248364;22;20004;-77
2021/01/01 07:04:48;;;;;;;10.07;6.20;;;;;;;;;;6275430;22;20065;-76
2021/01/01 07:07:33;;;;;;;10.88;5.93;;;;;;;;;;6275490;22;20006;-77
2021/01/01 07:09:59;;;;;;;11.52;6.75;;;;;;;;;;6275379;22;20003;-77
2021/01/01 07:12:24;;;;;;;9.00;6.32;;;;;;;;;;6274955;22;20026;-77
2021/01/01 07:14:50;;;;;;;9.43;5.53;;;;;;;;;;6274399;22;20007;-77
2021/01/01 07:17:17;;;;;;;9.15;5.47;;;;;;;;;;6274756;22;20559;-77
2021/01/01 07:19:43;;;;;;;11.90;6.63;;;;;;;;;;6275315;22;19999;-77
2021/01/01 07:22:09;;;;;;;9.98;6.57;;;;;;;;;;6274821;22;20455;-78
2021/01/01 07:24:34;;;;;;;9.32;5.22;;;;;;;;;;6274308;22;20031;-77
2021/01/01 07:27:00;;;;;;;10.55;6.22;;;;;;;;;;6274844;22;20003;-76
2021/01/01 07:29:27;;;;;;;9.88;6.13;;;;;;;;;;6274833;22;20002;-77
2021/01/01 07:31:53;;;;;;;11.68;6.68;;;;;;;;;;6275063;22;19995;-77
2021/01/01 07:34:19;;;;;;;12.85;8.10;;;;;;;;;;6274131;22;20004;-77
2021/01/01 07:36:46;;;;;;;10.93;6.55;;;;;;;;;;6274732;22;20008;-77
2021/01/01 07:39:12;;;;;;;12.82;7.57;;;;;;;;;;6247572;22;20007;-78
2021/01/01 07:41:38;;;;;;;13.20;8.32;;;;;;;;;;6275053;22;20067;-77
2021/01/01 07:44:05;;;;;;;13.15;8.82;;;;;;;;;;6274241;22;19999;-78
2021/01/01 07:46:31;;;;;;;12.10;7.40;;;;;;;;;;6274324;22;20004;-77
2021/01/01 07:51:15;;;;;;;12.32;6.90;;;;;;;;;;5114826;27;20363;-77
2021/01/01 07:53:41;;;;;;;11.30;7.03;;;;;;;;;;5111130;28;20089;-77
2021/01/01 07:56:08;;;;;;;12.18;6.80;;;;;;;;;;5118213;28;20020;-77
2021/01/01 07:58:34;;;;;;;13.27;7.43;;;;;;;;;;5123535;28;20068;-78
2021/01/01 08:01:03;;;;;;;13.77;7.03;;;;;;;;;;5106846;28;20104;-78
2021/01/01 08:03:29;;;;;;;12.32;6.97;;;;;;;;;;5123799;28;20102;-77
2021/01/01 08:05:55;;;;;;;14.88;8.02;;;;;;;;;;5112156;28;20028;-77
2021/01/01 08:08:22;;;;;;;17.75;9.00;;;;;;;;;;5115856;28;20073;-77
2021/01/01 08:10:49;;;;;;;17.85;9.27;;;;;;;;;;5121153;28;20023;-77
2021/01/01 08:13:16;;;;;;;15.95;9.07;;;;;;;;;;5107756;28;20035;-78
2021/01/01 08:15:42;;;;;;;23.52;12.68;;;;;;;;;;5124330;28;20015;-77
2021/01/01 08:18:09;;;;;;;32.28;15.60;;;;;;;;;;5120279;27;20038;-77
2021/01/01 08:20:35;;;;;;;28.75;15.82;;;;;;;;;;5115543;28;20035;-78
2021/01/01 08:23:03;;;;;;;23.45;13.57;;;;;;;;;;5120331;28;20031;-77
2021/01/01 08:25:29;;;;;;;19.92;11.45;;;;;;;;;;5110913;28;20107;-78
2021/01/01 08:27:55;;;;;;;18.20;9.60;;;;;;;;;;5100049;28;20040;-78
2021/01/01 08:30:22;;;;;;;16.38;9.82;;;;;;;;;;5110326;28;20032;-78
2021/01/01 08:32:48;;;;;;;16.27;9.32;;;;;;;;;;5111193;28;20023;-78
2021/01/01 08:35:14;;;;;;;17.55;11.00;;;;;;;;;;5104300;28;20028;-78
2021/01/01 08:37:40;;;;;;;18.50;11.55;;;;;;;;;;5104672;28;20023;-77
2021/01/01 08:40:07;;;;;;;17.27;10.82;;;;;;;;;;5101643;28;20502;-77
2021/01/01 08:42:36;;;;;;;16.00;10.32;;;;;;;;;;5108779;28;20031;-78
2021/01/01 08:45:03;;;;;;;18.17;10.73;;;;;;;;;;5108919;28;20384;-77
2021/01/01 08:47:43;;;;;;;15.43;10.48;;;;;;;;;;5117314;28;20391;-78
2021/01/01 08:50:28;;;;;;;13.60;8.93;;;;;;;;;;5114943;28;20038;-77
2021/01/01 08:52:58;;;;;;;16.75;11.30;;;;;;;;;;5096109;28;20077;-77
2021/01/01 08:55:25;;;;;;;20.88;12.70;;;;;;;;;;5101213;28;20107;-76
2021/01/01 08:57:51;;;;;;;20.63;13.27;;;;;;;;;;5094111;28;20027;-78
2021/01/01 09:00:17;;;;;;;18.00;11.30;;;;;;;;;;5091943;28;20024;-78
2021/01/01 09:02:43;;;;;;;20.92;12.27;;;;;;;;;;5082929;28;20595;-77
2021/01/01 09:05:12;;;;;;;24.67;15.50;;;;;;;;;;5083188;28;20035;-78
2021/01/01 09:07:38;;;;;;;29.38;16.10;;;;;;;;;;5083099;28;20035;-78
2021/01/01 09:10:18;;;;;;;40.92;22.10;;;;;;;;;;5089945;28;20039;-78
2021/01/01 09:12:44;;;;;;;58.97;29.02;;;;;;;;;;5086072;28;20490;-78
2021/01/01 09:15:10;;;;;;;101.65;47.25;;;;;;;;;;5084681;28;20078;-78
2021/01/01 09:17:36;;;;;;;96.85;44.67;;;;;;;;;;5094345;28;20019;-78
2021/01/01 09:20:09;;;;;;;74.70;36.65;;;;;;;;;;5086271;28;20051;-78
2021/01/01 09:22:36;;;;;;;49.15;25.38;;;;;;;;;;5094178;28;20115;-78
2021/01/01 09:25:18;;;;;;;35.92;18.90;;;;;;;;;;5091842;28;20021;-78
2021/01/01 09:27:45;;;;;;;30.83;16.45;;;;;;;;;;5090793;28;20097;-78
2021/01/01 09:30:11;;;;;;;24.55;13.20;;;;;;;;;;5084224;28;20414;-78
2021/01/01 09:34:56;;;;;;;21.70;12.38;;;;;;;;;;5109523;27;20361;-79
2021/01/01 09:37:25;;;;;;;18.92;10.77;;;;;;;;;;5083730;28;20040;-77
2021/01/01 09:39:51;;;;;;;20.30;12.40;;;;;;;;;;5082354;28;20047;-78
2021/01/01 09:42:16;;;;;;;18.58;10.35;;;;;;;;;;5083108;28;20020;-78
2021/01/01 09:44:42;;;;;;;18.13;10.77;;;;;;;;;;5092005;28;20038;-78
2021/01/01 09:47:08;;;;;;;19.15;11.65;;;;;;;;;;5083529;28;20088;-78
2021/01/01 09:49:34;;;;;;;20.05;12.70;;;;;;;;;;5082158;28;20165;-78
2021/01/01 09:52:00;;;;;;;26.80;15.68;;;;;;;;;;5081842;28;20070;-78
2021/01/01 09:54:26;;;;;;;25.40;14.57;;;;;;;;;;5093647;28;20089;-79
2021/01/01 09:56:53;;;;;;;23.02;13.20;;;;;;;;;;5083472;28;20438;-79
2021/01/01 09:59:19;;;;;;;21.50;12.55;;;;;;;;;;5083567;28;20028;-78
2021/01/01 10:01:45;;;;;;;18.50;10.77;;;;;;;;;;5088996;28;20077;-79
2021/01/01 10:04:11;;;;;;;24.27;13.50;;;;;;;;;;5084863;28;20032;-78
2021/01/01 10:06:37;;;;;;;23.67;13.68;;;;;;;;;;5087193;28;20367;-78
2021/01/01 10:09:03;;;;;;;23.15;15.27;;;;;;;;;;5082868;28;20024;-79
2021/01/01 10:11:29;;;;;;;20.58;13.05;;;;;;;;;;5085760;28;20028;-78
2021/01/01 10:13:55;;;;;;;22.17;12.98;;;;;;;;;;5084375;28;20104;-78
2021/01/01 10:16:21;;;;;;;21.45;11.98;;;;;;;;;;5083781;28;20027;-79
2021/01/01 10:18:46;;;;;;;21.20;11.95;;;;;;;;;;5095961;28;20092;-79
2021/01/01 10:21:13;;;;;;;22.77;12.82;;;;;;;;;;5082261;28;20059;-79
2021/01/01 10:23:41;;;;;;;23.63;12.65;;;;;;;;;;5101533;28;20023;-79
2021/01/01 10:26:09;;;;;;;26.83;14.65;;;;;;;;;;5086225;28;20059;-79
2021/01/01 10:28:35;;;;;;;24.10;14.48;;;;;;;;;;5098401;28;20069;-80
2021/01/01 10:31:01;;;;;;;24.40;14.45;;;;;;;;;;5090121;28;20079;-80
2021/01/01 10:33:27;;;;;;;18.65;12.48;;;;;;;;;;5089829;28;20444;-79
2021/01/01 10:35:53;;;;;;;20.40;11.88;;;;;;;;;;5090423;28;20489;-78
2021/01/01 10:38:19;;;;;;;20.45;11.55;;;;;;;;;;5089053;28;20038;-78
2021/01/01 10:40:45;;;;;;;21.55;12.40;;;;;;;;;;5085233;28;20020;-78
2021/01/01 10:43:11;;;;;;;20.73;13.13;;;;;;;;;;5086742;28;20039;-79
2021/01/01 10:45:36;;;;;;;22.05;13.13;;;;;;;;;;5087782;28;20054;-79
2021/01/01 10:48:03;;;;;;;21.60;13.10;;;;;;;;;;5075912;28;20021;-78
2021/01/01 10:50:29;;;;;;;24.80;14.25;;;;;;;;;;5079121;28;20571;-78
2021/01/01 10:52:55;;;;;;;23.50;13.75;;;;;;;;;;5077349;28;20024;-78
2021/01/01 10:55:21;;;;;;;24.35;13.90;;;;;;;;;;5076094;28;20449;-78
2021/01/01 10:57:47;;;;;;;21.92;13.75;;;;;;;;;;5087553;28;20052;-78
2021/01/01 11:00:13;;;;;;;22.85;13.15;;;;;;;;;;5077729;28;20032;-78
2021/01/01 11:02:39;;;;;;;24.05;14.98;;;;;;;;;;5080798;28;20031;-79
2021/01/01 11:05:05;;;;;;;22.95;13.52;;;;;;;;;;5086408;28;20016;-80
2021/01/01 11:07:31;;;;;;;23.65;13.65;;;;;;;;;;5078362;28;20107;-78
2021/01/01 11:09:57;;;;;;;20.83;12.63;;;;;;;;;;5083074;28;20023;-78
2021/01/01 11:12:23;;;;;;;20.13;11.95;;;;;;;;;;5081796;28;20024;-79
2021/01/01 12:22:30;;;;;;;14.55;7.97;;;;;;;;;;5061406;28;20028;-83
2021/01/01 12:24:56;;;;;;;19.08;9.30;;;;;;;;;;5057326;28;20021;-83
2021/01/01 12:27:27;;;;;;;13.82;8.48;;;;;;;;;;5062555;28;20017;-83
2021/01/01 12:29:53;;;;;;;14.17;8.57;;;;;;;;;;5074822;28;20100;-83
2021/01/01 12:32:20;;;;;;;15.55;7.95;;;;;;;;;;5059989;28;20036;-81
2021/01/01 12:34:46;;;;;;;16.70;10.68;;;;;;;;;;5077219;28;20016;-81
2021/01/01 12:37:12;;;;;;;17.98;10.70;;;;;;;;;;5080874;28;20028;-81
2021/01/01 12:39:38;;;;;;;20.92;12.40;;;;;;;;;;5070148;28;20546;-82
2021/01/01 12:42:04;;;;;;;16.42;10.05;;;;;;;;;;5059079;28;20024;-81
2021/01/01 12:44:31;;;;;;;15.57;9.20;;;;;;;;;;5073035;28;20536;-82
2021/01/01 12:46:57;;;;;;;13.15;8.38;;;;;;;;;;5074835;28;20357;-82
2021/01/01 12:49:23;;;;;;;15.07;8.30;;;;;;;;;;5079500;28;20024;-81
2021/01/01 12:51:49;;;;;;;15.70;9.90;;;;;;;;;;5059993;28;20028;-82
2021/01/01 12:54:15;;;;;;;14.13;8.73;;;;;;;;;;5054240;28;20424;-82
2021/01/01 12:56:41;;;;;;;14.55;8.73;;;;;;;;;;5047963;28;20113;-83
2021/01/01 12:59:07;;;;;;;14.02;8.20;;;;;;;;;;5061968;28;20473;-83
2021/01/01 13:01:33;;;;;;;13.60;8.18;;;;;;;;;;5079198;28;20033;-83
2021/01/01 13:03:59;;;;;;;10.60;6.70;;;;;;;;;;5059676;28;20473;-83
2021/01/01 13:06:25;;;;;;;11.23;7.22;;;;;;;;;;5073713;28;20051;-83
2021/01/01 13:08:54;;;;;;;11.32;7.50;;;;;;;;;;5078980;28;20103;-83
2021/01/01 13:11:23;;;;;;;;;;;;;;;;;;5075286;28;20032;-83
2021/01/01 13:13:49;;;;;;;11.98;7.35;;;;;;;;;;5072662;28;19920;-83
2021/01/01 13:16:20;;;;;;;17.90;10.55;;;;;;;;;;5072740;28;20028;-83
2021/01/01 13:18:46;;;;;;;15.20;9.07;;;;;;;;;;5045172;28;20025;-83
2021/01/01 13:21:12;;;;;;;15.55;9.20;;;;;;;;;;5079694;28;20794;-83
2021/01/01 13:23:39;;;;;;;13.88;8.82;;;;;;;;;;5075481;28;20037;-83
2021/01/01 13:26:05;;;;;;;12.30;7.78;;;;;;;;;;5066293;28;20055;-83
2021/01/01 13:28:31;;;;;;;12.70;7.53;;;;;;;;;;5067912;28;20024;-83
2021/01/01 13:30:57;;;;;;;12.50;6.75;;;;;;;;;;5062294;28;20025;-83
2021/01/01 13:33:23;;;;;;;12.93;7.97;;;;;;;;;;5058653;28;20025;-83
2021/01/01 13:35:51;;;;;;;18.05;10.27;;;;;;;;;;5051781;28;20028;-83
2021/01/01 13:38:18;;;;;;;14.50;8.23;;;;;;;;;;5059844;28;20096;-83
2021/01/01 13:40:44;;;;;;;18.20;11.10;;;;;;;;;;5068047;28;20044;-82
2021/01/01 13:43:10;;;;;;;18.30;10.57;;;;;;;;;;5057328;28;20039;-83
2021/01/01 13:45:38;;;;;;;15.20;9.32;;;;;;;;;;5066457;28;20032;-83
2021/01/01 13:48:05;;;;;;;16.73;10.23;;;;;;;;;;5068297;28;20029;-83
2021/01/01 13:50:30;;;;;;;18.05;10.82;;;;;;;;;;5067481;28;20024;-83
2021/01/01 13:52:56;;;;;;;15.27;9.75;;;;;;;;;;5063856;28;20480;-83
2021/01/01 13:55:22;;;;;;;12.60;8.07;;;;;;;;;;5061244;28;20041;-83
2021/01/01 14:00:06;;;;;;;21.88;12.68;;;;;;;;;;5094233;27;20348;-82
2021/01/01 14:02:32;;;;;;;18.73;12.55;;;;;;;;;;5079717;28;20430;-82
2021/01/01 14:17:41;;;;;;;10.45;7.68;;;;;;;;;;5070074;27;21235;-82
2021/01/01 14:22:25;;;;;;;9.43;6.25;;;;;;;;;;5050693;27;21100;-83
2021/01/01 14:24:50;;;;;;;9.85;5.68;;;;;;;;;;5050079;28;20076;-82
2021/01/01 14:27:16;;;;;;;12.88;6.85;;;;;;;;;;5049904;28;20033;-85
2021/01/01 14:29:42;;;;;;;10.30;6.35;;;;;;;;;;5047625;28;20104;-86
2021/01/01 14:32:08;;;;;;;14.15;8.32;;;;;;;;;;5048764;28;20033;-83
2021/01/01 14:36:52;;;;;;;11.18;6.97;;;;;;;;;;5093183;27;20450;-82
2021/01/01 14:39:18;;;;;;;11.68;7.78;;;;;;;;;;5076053;28;20378;-83
2021/01/01 14:41:44;;;;;;;11.63;7.72;;;;;;;;;;5099895;28;20028;-83
2021/01/01 14:44:10;;;;;;;14.68;10.23;;;;;;;;;;5085444;28;20082;-81
2021/01/01 14:46:37;;;;;;;18.17;13.52;;;;;;;;;;5094951;28;20081;-80
2021/01/01 14:49:03;;;;;;;12.75;8.25;;;;;;;;;;5097906;28;20060;-81
2021/01/01 14:51:29;;;;;;;12.95;8.70;;;;;;;;;;5101402;28;20050;-82
2021/01/01 14:53:55;;;;;;;13.88;9.30;;;;;;;;;;5114801;28;20030;-80
2021/01/01 14:56:21;;;;;;;14.80;8.77;;;;;;;;;;5092405;28;20028;-80
2021/01/01 14:58:47;;;;;;;13.43;9.48;;;;;;;;;;5073292;28;20110;-81
2021/01/01 15:01:13;;;;;;;14.23;9.20;;;;;;;;;;5106722;28;20050;-81
2021/01/01 15:03:42;;;;;;;15.25;10.05;;;;;;;;;;5083902;28;20384;-80
2021/01/01 15:06:08;;;;;;;15.30;9.25;;;;;;;;;;5093515;28;20024;-81
2021/01/01 15:08:34;;;;;;;15.70;9.82;;;;;;;;;;5095996;28;20035;-81
2021/01/01 15:11:00;;;;;;;13.15;8.48;;;;;;;;;;5088952;28;20028;-82
2021/01/01 15:13:26;;;;;;;11.43;7.50;;;;;;;;;;5077651;28;20046;-82
2021/01/01 15:15:52;;;;;;;10.82;6.25;;;;;;;;;;5070126;28;20069;-84
2021/01/01 15:18:18;;;;;;;14.48;9.70;;;;;;;;;;5079027;28;20020;-80
2021/01/01 15:20:44;;;;;;;12.93;7.63;;;;;;;;;;5097802;28;20021;-81
2021/01/01 15:23:10;;;;;;;15.23;10.45;;;;;;;;;;5084667;28;20023;-80
2021/01/01 15:25:36;;;;;;;12.05;7.25;;;;;;;;;;5079474;28;20036;-80
2021/01/01 15:28:02;;;;;;;10.35;7.00;;;;;;;;;;5094434;28;20443;-82
2021/01/01 15:30:30;;;;;;;11.27;7.22;;;;;;;;;;5092526;28;20016;-81
2021/01/01 15:32:56;;;;;;;11.35;7.00;;;;;;;;;;5086343;28;20021;-80
2021/01/01 15:35:21;;;;;;;9.98;6.68;;;;;;;;;;5080073;28;20041;-80
2021/01/01 15:37:47;;;;;;;16.77;8.20;;;;;;;;;;5066182;28;20040;-81
2021/01/01 15:40:13;;;;;;;23.27;11.52;;;;;;;;;;5067277;28;20170;-83
2021/01/01 15:42:39;;;;;;;12.50;8.40;;;;;;;;;;5077413;28;20020;-82
2021/01/01 15:45:06;;;;;;;14.18;8.80;;;;;;;;;;5089531;28;20043;-82
2021/01/01 15:47:35;;;;;;;11.57;6.25;;;;;;;;;;5060663;28;20116;-82
2021/01/01 15:50:02;;;;;;;8.95;5.45;;;;;;;;;;5072100;28;20106;-83
2021/01/01 15:52:28;;;;;;;10.13;6.47;;;;;;;;;;5053810;28;20079;-82
2021/01/01 15:54:54;;;;;;;11.88;6.20;;;;;;;;;;5070143;28;20484;-83
2021/01/01 15:57:20;;;;;;;9.98;6.78;;;;;;;;;;5047245;28;20111;-83
2021/01/01 15:59:46;;;;;;;9.00;5.30;;;;;;;;;;5048577;28;20075;-83
2021/01/01 16:02:12;;;;;;;8.88;5.38;;;;;;;;;;5053470;28;20012;-81
2021/01/01 16:04:41;;;;;;;11.93;7.75;;;;;;;;;;5058533;28;20138;-82
2021/01/01 16:07:07;;;;;;;11.93;5.88;;;;;;;;;;5071568;28;20024;-82
2021/01/01 16:09:33;;;;;;;8.25;4.50;;;;;;;;;;5051737;28;20032;-82
2021/01/01 16:12:00;;;;;;;9.68;5.80;;;;;;;;;;5065926;28;20028;-81
2021/01/01 16:14:26;;;;;;;8.77;5.45;;;;;;;;;;5067464;28;20033;-81
2021/01/01 16:16:52;;;;;;;9.93;5.70;;;;;;;;;;5047945;28;20024;-82
2021/01/01 16:19:18;;;;;;;9.93;5.30;;;;;;;;;;5052324;28;20461;-82
2021/01/01 16:21:44;;;;;;;12.30;6.38;;;;;;;;;;5066959;28;20025;-81
2021/01/01 16:24:11;;;;;;;10.35;5.68;;;;;;;;;;5066995;28;20028;-82
2021/01/01 16:26:44;;;;;;;9.13;5.50;;;;;;;;;;5069699;28;20028;-82
2021/01/01 16:29:11;;;;;;;8.02;4.80;;;;;;;;;;5068322;28;20029;-82
2021/01/01 16:31:43;;;;;;;8.02;4.68;;;;;;;;;;5064020;28;20040;-81
2021/01/01 16:34:10;;;;;;;14.77;9.80;;;;;;;;;;5067567;28;20032;-83
2021/01/01 16:36:36;;;;;;;20.05;11.88;;;;;;;;;;5081286;28;20032;-82
2021/01/01 16:39:03;;;;;;;10.18;6.50;;;;;;;;;;5062878;28;20107;-82
2021/01/01 16:41:36;;;;;;;13.73;7.63;;;;;;;;;;5073935;28;20488;-82
2021/01/01 16:44:02;;;;;;;10.38;6.35;;;;;;;;;;5065482;28;20021;-82
2021/01/01 16:46:30;;;;;;;7.45;4.45;;;;;;;;;;5049154;28;20078;-82
2021/01/01 16:48:56;;;;;;;8.80;4.68;;;;;;;;;;5066844;28;20140;-81
2021/01/01 16:51:27;;;;;;;6.40;3.95;;;;;;;;;;5068936;28;20071;-83
2021/01/01 16:53:53;;;;;;;;;;;;;;;;;;5083091;28;20085;-83
2021/01/01 16:56:19;;;;;;;5.43;3.58;;;;;;;;;;5079988;28;19916;-82
2021/01/01 16:58:45;;;;;;;5.72;3.65;;;;;;;;;;5094368;28;20036;-81
2021/01/01 17:01:11;;;;;;;6.40;3.67;;;;;;;;;;5082587;28;20028;-82
2021/01/01 17:03:37;;;;;;;6.10;3.30;;;;;;;;;;5074491;28;20052;-81
2021/01/01 17:06:03;;;;;;;6.10;3.55;;;;;;;;;;5076776;28;20057;-83
2021/01/01 17:08:30;;;;;;;6.30;3.83;;;;;;;;;;5076976;28;20090;-81
2021/01/01 17:10:56;;;;;;;6.88;4.07;;;;;;;;;;5076784;28;20064;-82
2021/01/01 17:13:21;;;;;;;6.72;3.70;;;;;;;;;;5075406;28;20086;-82
2021/01/01 17:15:47;;;;;;;7.32;3.72;;;;;;;;;;5053916;28;20043;-83
2021/01/01 17:18:14;;;;;;;5.43;3.15;;;;;;;;;;5069943;28;20052;-81
2021/01/01 17:20:40;;;;;;;7.88;3.70;;;;;;;;;;5078544;28;20059;-81
2021/01/01 17:23:06;;;;;;;6.25;4.40;;;;;;;;;;5062347;28;20253;-80
2021/01/01 17:25:32;;;;;;;9.70;5.53;;;;;;;;;;5074041;28;20039;-81
2021/01/01 17:27:58;;;;;;;6.32;3.67;;;;;;;;;;5067750;28;20171;-81
2021/01/01 17:30:25;;;;;;;6.10;4.18;;;;;;;;;;5067951;28;20033;-82
2021/01/01 17:32:51;;;;;;;5.95;3.72;;;;;;;;;;5072113;28;20134;-82
2021/01/01 17:35:16;;;;;;;5.13;3.10;;;;;;;;;;5051629;28;20033;-83
2021/01/01 17:37:43;;;;;;;7.38;4.03;;;;;;;;;;5066140;28;20094;-81
2021/01/01 17:40:09;;;;;;;6.32;3.88;;;;;;;;;;5073680;28;20036;-81
2021/01/01 17:42:38;;;;;;;5.15;3.33;;;;;;;;;;5072012;28;20031;-82
2021/01/01 17:45:05;;;;;;;5.43;3.35;;;;;;;;;;5065716;28;20550;-81
2021/01/01 17:47:34;;;;;;;6.47;3.45;;;;;;;;;;5043926;28;20028;-83
2021/01/01 17:50:00;;;;;;;5.65;3.40;;;;;;;;;;5076036;28;20029;-83
2021/01/01 17:52:26;;;;;;;6.45;3.15;;;;;;;;;;5062516;28;20389;-83
2021/01/01 18:07:35;;;;;;;5.80;3.53;;;;;;;;;;5126331;27;20365;-84
2021/01/01 18:10:01;;;;;;;7.03;3.47;;;;;;;;;;5118594;27;20034;-84
2021/01/01 18:12:27;;;;;;;6.70;4.40;;;;;;;;;;5114199;28;20032;-84
2021/01/01 18:14:54;;;;;;;6.30;3.92;;;;;;;;;;5112433;28;20024;-84
2021/01/01 18:17:20;;;;;;;7.30;4.22;;;;;;;;;;5111938;28;20028;-83
2021/01/01 18:19:46;;;;;;;10.88;6.47;;;;;;;;;;5116460;28;20024;-83
2021/01/01 18:22:12;;;;;;;9.10;4.55;;;;;;;;;;5113023;28;20012;-82
2021/01/01 18:24:38;;;;;;;6.38;4.35;;;;;;;;;;5103630;28;20550;-83
2021/01/01 18:27:06;;;;;;;6.10;3.53;;;;;;;;;;5115728;28;20370;-83
2021/01/01 18:29:33;;;;;;;6.40;3.65;;;;;;;;;;5116331;28;20069;-85
2021/01/01 18:32:03;;;;;;;5.80;3.13;;;;;;;;;;5117202;28;20057;-84
2021/01/01 18:36:52;;;;;;;6.00;3.28;;;;;;;;;;5068990;28;20402;-84
2021/01/01 18:39:18;;;;;;;5.10;2.92;;;;;;;;;;5063026;28;20020;-84
2021/01/01 18:41:51;;;;;;;6.05;3.40;;;;;;;;;;5059124;28;20067;-85
2021/01/01 18:44:26;;;;;;;5.28;3.33;;;;;;;;;;5049386;28;20507;-84
2021/01/01 18:46:52;;;;;;;5.32;3.00;;;;;;;;;;5065517;28;20025;-84
2021/01/01 18:49:19;;;;;;;5.57;3.63;;;;;;;;;;5062247;28;20096;-85
2021/01/01 18:51:50;;;;;;;4.68;2.53;;;;;;;;;;5049504;28;20021;-84
2021/01/01 18:54:16;;;;;;;6.25;3.22;;;;;;;;;;5046481;28;20837;-83
2021/01/01 18:56:47;;;;;;;6.63;3.78;;;;;;;;;;5066356;28;20036;-84
2021/01/01 18:59:41;;;;;;;6.25;3.40;;;;;;;;;;5066899;28;20505;-84
2021/01/01 19:02:11;;;;;;;5.53;3.40;;;;;;;;;;5025811;28;20029;-84
2021/01/01 19:04:39;;;;;;;6.20;3.13;;;;;;;;;;5082194;28;20025;-84
2021/01/01 19:07:09;;;;;;;5.38;3.00;;;;;;;;;;5068916;28;20044;-83
2021/01/01 19:09:40;;;;;;;6.00;3.50;;;;;;;;;;5051482;28;20036;-85
2021/01/01 19:12:07;;;;;;;6.20;3.33;;;;;;;;;;5069413;28;20048;-84
2021/01/01 19:14:35;;;;;;;6.15;3.08;;;;;;;;;;5057112;28;20048;-85
2021/01/01 19:17:11;;;;;;;7.40;3.85;;;;;;;;;;5067184;28;20028;-85
2021/01/01 19:19:40;;;;;;;5.60;3.45;;;;;;;;;;5073128;28;20097;-84
2021/01/01 19:22:13;;;;;;;4.97;3.08;;;;;;;;;;5074073;28;20033;-84
2021/01/01 19:24:41;;;;;;;6.18;3.45;;;;;;;;;;5062746;28;20024;-85
2021/01/01 19:27:11;;;;;;;5.13;3.45;;;;;;;;;;5045630;28;20155;-85
2021/01/01 19:31:57;;;;;;;5.93;3.80;;;;;;;;;;5101940;27;20365;-83
2021/01/01 19:34:33;;;;;;;6.25;3.53;;;;;;;;;;5057312;28;20029;-82
2021/01/01 19:37:11;;;;;;;6.82;3.78;;;;;;;;;;5050468;28;20420;-83
2021/01/01 19:39:37;;;;;;;7.95;4.50;;;;;;;;;;5055356;28;20034;-81
2021/01/01 19:42:15;;;;;;;8.77;4.63;;;;;;;;;;5073127;28;20025;-82
2021/01/01 19:44:49;;;;;;;7.22;4.38;;;;;;;;;;5052298;28;20034;-82
2021/01/01 19:47:25;;;;;;;8.98;4.60;;;;;;;;;;5059924;28;20029;-83
2021/01/01 19:49:51;;;;;;;8.48;4.53;;;;;;;;;;5056055;28;20045;-82
2021/01/01 19:52:24;;;;;;;7.13;4.65;;;;;;;;;;5073104;28;20077;-80
2021/01/01 19:54:56;;;;;;;8.65;4.63;;;;;;;;;;5068572;28;20051;-82
2021/01/01 19:57:22;;;;;;;8.63;4.60;;;;;;;;;;5058206;28;20025;-82
2021/01/01 19:59:51;;;;;;;7.38;4.28;;;;;;;;;;5055739;28;20035;-82
2021/01/01 20:02:24;;;;;;;10.75;5.40;;;;;;;;;;5063568;28;20052;-82
2021/01/01 20:04:55;;;;;;;7.32;4.05;;;;;;;;;;5060238;28;20044;-83
2021/01/01 20:07:26;;;;;;;8.57;4.82;;;;;;;;;;5056386;28;20116;-82
2021/01/01 20:09:54;;;;;;;8.57;5.20;;;;;;;;;;5055333;28;20028;-82
2021/01/01 20:12:22;;;;;;;9.25;5.18;;;;;;;;;;5058674;28;20465;-81
2021/01/01 20:14:52;;;;;;;9.18;5.22;;;;;;;;;;5056190;28;20405;-82
2021/01/01 20:17:19;;;;;;;9.93;5.57;;;;;;;;;;5059914;28;20033;-83
2021/01/01 20:19:49;;;;;;;9.73;5.35;;;;;;;;;;5054450;28;20036;-82
2021/01/01 20:22:18;;;;;;;10.27;5.38;;;;;;;;;;5054568;28;20138;-82
2021/01/01 20:24:45;;;;;;;8.95;5.30;;;;;;;;;;5057637;28;20032;-82
2021/01/01 20:27:13;;;;;;;9.68;5.28;;;;;;;;;;5061465;28;20025;-82
2021/01/01 20:29:39;;;;;;;9.27;4.60;;;;;;;;;;5062218;28;20055;-83
2021/01/01 20:32:05;;;;;;;11.82;5.15;;;;;;;;;;5059895;28;20036;-82
2021/01/01 20:39:28;;;;;;;10.38;6.07;;;;;;;;;;5085220;28;20431;-83
2021/01/01 20:42:12;;;;;;;10.65;5.70;;;;;;;;;;5053840;28;20115;-83
2021/01/01 20:44:51;;;;;;;15.90;6.38;;;;;;;;;;5056228;28;20031;-82
2021/01/01 20:58:31;;;;;;;12.80;6.10;;;;;;;;;;5072821;28;20046;-83
2021/01/01 21:00:58;;;;;;;18.90;8.32;;;;;;;;;;5069635;28;20036;-82
2021/01/01 21:03:27;;;;;;;15.43;8.38;;;;;;;;;;5067620;28;20529;-83
2021/01/01 21:05:56;;;;;;;15.15;8.07;;;;;;;;;;5048107;28;20176;-82
2021/01/01 21:08:38;;;;;;;19.83;9.00;;;;;;;;;;5064268;28;20032;-83
2021/01/01 21:11:19;;;;;;;12.98;7.43;;;;;;;;;;5065617;28;20041;-83
2021/01/01 21:13:48;;;;;;;15.48;7.45;;;;;;;;;;5043023;28;20028;-82
2021/01/01 21:16:20;;;;;;;19.40;8.45;;;;;;;;;;5062578;28;20162;-83
2021/01/01 21:19:09;;;;;;;25.70;8.15;;;;;;;;;;5064577;28;20032;-83
2021/01/01 21:21:52;;;;;;;16.35;8.25;;;;;;;;;;5047397;28;20108;-83
2021/01/01 21:24:33;;;;;;;42.95;7.28;;;;;;;;;;5061060;28;20021;-84
2021/01/01 21:27:17;;;;;;;27.35;7.55;;;;;;;;;;5044813;28;20074;-83
2021/01/01 21:29:56;;;;;;;16.52;6.90;;;;;;;;;;5064548;28;20025;-84
2021/01/01 21:32:41;;;;;;;20.42;7.88;;;;;;;;;;5046543;28;20082;-84
2021/01/01 21:35:27;;;;;;;14.82;7.95;;;;;;;;;;5049522;28;20036;-84
2021/01/01 21:38:09;;;;;;;29.40;10.93;;;;;;;;;;5046213;28;20123;-83
2021/01/01 21:40:54;;;;;;;14.73;7.13;;;;;;;;;;5063126;28;20079;-84
2021/01/01 21:43:37;;;;;;;22.83;7.50;;;;;;;;;;5056398;28;20107;-85
2021/01/01 21:46:14;;;;;;;31.02;8.13;;;;;;;;;;5046332;28;20030;-85
2021/01/01 21:48:51;;;;;;;25.95;8.43;;;;;;;;;;5047692;28;20033;-85
2021/01/01 21:51:17;;;;;;;23.83;7.13;;;;;;;;;;5046128;28;20028;-84
2021/01/01 21:53:43;;;;;;;20.67;5.72;;;;;;;;;;5037701;28;20028;-84
2021/01/01 21:56:22;;;;;;;21.67;7.13;;;;;;;;;;5048963;28;20118;-84
2021/01/01 21:58:48;;;;;;;33.35;6.25;;;;;;;;;;5050324;28;20109;-85
2021/01/01 22:01:15;;;;;;;14.95;6.35;;;;;;;;;;5054814;28;20033;-84
2021/01/01 22:03:41;;;;;;;37.38;8.10;;;;;;;;;;5047963;28;20029;-83
2021/01/01 22:06:07;;;;;;;25.90;6.13;;;;;;;;;;5044515;28;20029;-84
2021/01/01 22:08:34;;;;;;;12.75;7.28;;;;;;;;;;5056154;28;20048;-84
2021/01/01 22:11:00;;;;;;;45.92;8.10;;;;;;;;;;5061254;28;20028;-84
2021/01/01 22:13:29;;;;;;;49.97;7.32;;;;;;;;;;5059480;28;20795;-84
2021/01/01 22:18:13;;;;;;;16.30;7.10;;;;;;;;;;5107148;27;20381;-84
2021/01/01 22:20:45;;;;;;;30.83;7.22;;;;;;;;;;5087888;28;20024;-85
2021/01/01 22:23:23;;;;;;;25.92;7.35;;;;;;;;;;5091407;28;20029;-84
2021/01/01 22:25:52;;;;;;;43.10;9.15;;;;;;;;;;5086620;28;20028;-84
2021/01/01 22:28:18;;;;;;;17.85;9.10;;;;;;;;;;5082624;28;20028;-84
2021/01/01 22:30:44;;;;;;;16.90;9.57;;;;;;;;;;5083224;28;20039;-84
2021/01/01 22:33:10;;;;;;;16.55;7.75;;;;;;;;;;5085538;28;20027;-83